Time;durP1;ratioP1;P1;durP2;ratioP2;P2;SDS_P1;SDS_P2;PMS_P1;PMS_P2;Temp;Humidity;BMP_temperature;BMP_pressure;BME280_temperature;BME280_humidity;BME280_pressure;Samples;Min_cycle;Max_cycle;Signal;HPM_P1;HPM_P2
2022/06/19 00:01:19;;;;;;;7.00;1.33;;;;;;;;;;5030736;28;20489;-61
2022/06/19 00:03:47;;;;;;;8.48;1.52;;;;;;;;;;5017991;28;20080;-61
2022/06/19 00:06:13;;;;;;;11.07;1.75;;;;;;;;;;5020103;28;20046;-61
2022/06/19 00:08:39;;;;;;;10.02;1.42;;;;;;;;;;5026381;28;20037;-62
2022/06/19 00:11:06;;;;;;;9.60;1.27;;;;;;;;;;5034307;28;20052;-62
2022/06/19 00:13:32;;;;;;;8.23;1.67;;;;;;;;;;5046241;28;20052;-61
2022/06/19 00:15:59;;;;;;;9.32;1.70;;;;;;;;;;5042474;28;20140;-62
2022/06/19 00:18:25;;;;;;;9.75;1.23;;;;;;;;;;5013492;28;20053;-61
2022/06/19 00:20:51;;;;;;;10.27;1.58;;;;;;;;;;5023742;28;20037;-62
2022/06/19 00:23:17;;;;;;;7.35;1.45;;;;;;;;;;5033004;28;20053;-62
2022/06/19 00:25:43;;;;;;;9.30;1.40;;;;;;;;;;5033507;28;20391;-61
2022/06/19 00:28:09;;;;;;;10.57;2.45;;;;;;;;;;5019707;28;20115;-61
2022/06/19 00:30:36;;;;;;;15.82;2.67;;;;;;;;;;5028666;28;20049;-61
2022/06/19 00:33:02;;;;;;;6.93;1.33;;;;;;;;;;4998513;28;20495;-61
2022/06/19 00:35:29;;;;;;;5.13;1.23;;;;;;;;;;5014466;28;20038;-62
2022/06/19 00:37:55;;;;;;;6.50;1.30;;;;;;;;;;5032927;28;20053;-61
2022/06/19 00:40:22;;;;;;;5.40;1.17;;;;;;;;;;5018998;28;20129;-61
2022/06/19 00:42:48;;;;;;;7.95;1.30;;;;;;;;;;5027981;28;20103;-62
2022/06/19 00:45:31;;;;;;;11.23;1.60;;;;;;;;;;5028214;28;20137;-61
2022/06/19 00:47:57;;;;;;;7.93;1.40;;;;;;;;;;5014790;28;20049;-62
2022/06/19 00:50:34;;;;;;;6.32;1.13;;;;;;;;;;5037083;28;20042;-61
2022/06/19 00:53:02;;;;;;;7.53;1.38;;;;;;;;;;5035253;28;20052;-61
2022/06/19 00:55:32;;;;;;;8.63;1.60;;;;;;;;;;5041725;28;20397;-62
2022/06/19 00:58:00;;;;;;;6.10;1.27;;;;;;;;;;5012936;28;20053;-61
2022/06/19 01:00:30;;;;;;;11.20;1.75;;;;;;;;;;5012849;28;20048;-62
2022/06/19 01:03:07;;;;;;;7.90;1.40;;;;;;;;;;5014686;28;20403;-62
2022/06/19 01:05:35;;;;;;;9.38;1.27;;;;;;;;;;4996370;28;20559;-63
2022/06/19 01:08:01;;;;;;;8.35;1.40;;;;;;;;;;5026135;28;20418;-62
2022/06/19 01:10:28;;;;;;;8.77;2.00;;;;;;;;;;5016448;28;20034;-62
2022/06/19 01:12:56;;;;;;;9.60;1.42;;;;;;;;;;5031584;28;20044;-62
2022/06/19 01:15:23;;;;;;;10.65;2.45;;;;;;;;;;5044344;28;20052;-62
2022/06/19 01:17:52;;;;;;;14.80;1.58;;;;;;;;;;5027628;28;20041;-62
2022/06/19 01:20:18;;;;;;;15.52;1.98;;;;;;;;;;5032104;28;20451;-62
2022/06/19 01:23:18;;;;;;;12.00;1.92;;;14.30;99.90;;;;;;5012545;28;20054;-62
2022/06/19 01:25:44;;;;;;;12.07;1.50;;;;;;;;;;5012470;28;20061;-61
2022/06/19 01:31:05;;;;;;;13.35;2.15;;;;;;;;;;5037994;28;20088;-62
2022/06/19 01:33:35;;;;;;;9.52;1.70;;;;;;;;;;5046934;28;20049;-62
2022/06/19 01:36:28;;;;;;;10.18;1.95;;;14.00;99.90;;;;;;5039162;22;20053;-62
2022/06/19 01:38:54;;;;;;;12.73;3.30;;;;;;;;;;5027198;28;20061;-61
2022/06/19 01:41:26;;;;;;;13.35;1.83;;;;;;;;;;5043783;22;20053;-62
2022/06/19 01:43:52;;;;;;;12.35;1.92;;;;;;;;;;5028775;28;20457;-62
2022/06/19 01:46:18;;;;;;;11.15;2.47;;;;;;;;;;5003317;28;20049;-62
2022/06/19 01:48:44;;;;;;;11.77;1.83;;;;;;;;;;5012534;28;20084;-61
2022/06/19 01:51:10;;;;;;;23.35;2.53;;;;;;;;;;5023733;28;20125;-61
2022/06/19 01:53:42;;;;;;;16.77;2.28;;;;;;;;;;5028924;28;20570;-61
2022/06/19 01:56:09;;;;;;;16.20;2.63;;;;;;;;;;5028672;28;20077;-62
2022/06/19 01:58:36;;;;;;;17.70;2.65;;;;;;;;;;5019515;28;20052;-61
2022/06/19 02:01:04;;;;;;;14.57;2.85;;;;;;;;;;5027616;28;20041;-61
2022/06/19 02:03:40;;;;;;;12.23;2.42;;;;;;;;;;5024467;28;20042;-61
2022/06/19 02:06:08;;;;;;;18.40;3.05;;;;;;;;;;5027590;28;20050;-61
2022/06/19 02:08:34;;;;;;;20.95;2.75;;;;;;;;;;5027559;28;20452;-61
2022/06/19 02:11:01;;;;;;;11.23;1.92;;;;;;;;;;5010733;28;20084;-61
2022/06/19 02:13:29;;;;;;;15.38;2.13;;;;;;;;;;5029931;28;20045;-61
2022/06/19 02:15:55;;;;;;;12.77;2.65;;;;;;;;;;5034132;28;20095;-62
2022/06/19 02:18:27;;;;;;;17.15;3.85;;;;;;;;;;5033216;28;20046;-61
2022/06/19 02:20:53;;;;;;;15.20;2.40;;;;;;;;;;5033760;28;20413;-62
2022/06/19 02:23:21;;;;;;;16.77;2.15;;;;;;;;;;5034018;28;20490;-62
2022/06/19 02:25:47;;;;;;;14.40;2.15;;;;;;;;;;5034932;28;20045;-61
2022/06/19 02:28:14;;;;;;;11.45;3.17;;;;;;;;;;5032105;28;20410;-61
2022/06/19 02:30:41;;;;;;;15.77;2.00;;;;;;;;;;5022230;28;20049;-61
2022/06/19 02:33:10;;;;;;;16.50;2.40;;;;;;;;;;5030684;28;20413;-60
2022/06/19 02:35:36;;;;;;;17.65;2.85;;;;;;;;;;5033295;28;20048;-60
2022/06/19 02:38:06;;;;;;;10.35;2.30;;;;;;;;;;5026477;28;20050;-61
2022/06/19 02:40:32;;;;;;;19.10;2.80;;;;;;;;;;5033341;28;20489;-62
2022/06/19 02:42:58;;;;;;;21.40;3.70;;;;;;;;;;5019364;28;20069;-61
2022/06/19 02:45:26;;;;;;;18.73;2.60;;;;;;;;;;5005519;28;20042;-61
2022/06/19 02:47:53;;;;;;;20.38;2.85;;;;;;;;;;5031989;28;20060;-60
2022/06/19 02:50:20;;;;;;;17.42;3.20;;;;;;;;;;5022150;28;20430;-61
2022/06/19 02:52:47;;;;;;;15.05;2.38;;;;;;;;;;5018489;28;20042;-60
2022/06/19 02:55:14;;;;;;;21.38;2.72;;;;;;;;;;4995270;28;20050;-61
2022/06/19 02:57:40;;;;;;;14.07;2.10;;;;;;;;;;4996027;28;20050;-60
2022/06/19 03:00:08;;;;;;;14.85;2.25;;;;;;;;;;5020713;28;20499;-61
2022/06/19 03:02:34;;;;;;;11.88;1.88;;;;;;;;;;5005468;28;20053;-61
2022/06/19 03:05:02;;;;;;;14.93;2.35;;;;;;;;;;5000369;28;20055;-61
2022/06/19 03:07:29;;;;;;;12.18;1.88;;;;;;;;;;5024045;28;20050;-61
2022/06/19 03:09:55;;;;;;;16.05;2.35;;;;;;;;;;5000885;28;20413;-61
2022/06/19 03:12:21;;;;;;;14.68;2.42;;;;;;;;;;5013339;28;20452;-61
2022/06/19 03:14:47;;;;;;;16.33;2.38;;;;;;;;;;5034470;28;20473;-60
2022/06/19 03:17:18;;;;;;;16.70;3.10;;;;;;;;;;5026599;28;20046;-61
2022/06/19 03:19:44;;;;;;;;;;;;;;;;;;4998985;28;20141;-61
2022/06/19 03:22:10;;;;;;;10.82;2.38;;;;;;;;;;5010270;28;20040;-61
2022/06/19 03:24:37;;;;;;;11.55;2.22;;;;;;;;;;5013781;28;20112;-61
2022/06/19 03:27:03;;;;;;;14.55;2.10;;;;;;;;;;5027906;28;20060;-61
2022/06/19 03:29:29;;;;;;;13.10;2.20;;;;;;;;;;5020599;28;20042;-61
2022/06/19 03:31:55;;;;;;;17.73;1.98;;;;;;;;;;5017427;28;20105;-61
2022/06/19 03:34:21;;;;;;;9.60;2.28;;;;;;;;;;5018696;28;20050;-61
2022/06/19 03:36:47;;;;;;;16.85;2.20;;;;;;;;;;5017161;28;20469;-60
2022/06/19 03:39:14;;;;;;;15.23;2.67;;;;;;;;;;5012669;28;20053;-61
2022/06/19 03:41:40;;;;;;;15.07;2.50;;;;;;;;;;5007213;28;20533;-59
2022/06/19 03:44:07;;;;;;;15.60;2.78;;;;;;;;;;5011082;28;20145;-59
2022/06/19 03:46:33;;;;;;;20.27;3.30;;;;;;;;;;4980215;28;20100;-59
2022/06/19 03:48:59;;;;;;;15.60;3.13;;;;;;;;;;4994401;28;20046;-59
2022/06/19 03:51:25;;;;;;;14.82;2.50;;;;;;;;;;5010504;28;20079;-60
2022/06/19 03:53:52;;;;;;;18.05;4.22;;;;;;;;;;4997445;28;20038;-59
2022/06/19 03:56:23;;;;;;;16.20;2.70;;;;;;;;;;4994943;28;20042;-59
2022/06/19 03:58:49;;;;;;;19.92;2.83;;;;;;;;;;4996468;28;20049;-59
2022/06/19 04:01:17;;;;;;;15.80;2.78;;;;;;;;;;5011683;28;20089;-60
2022/06/19 04:03:43;;;;;;;26.20;5.93;;;;;;;;;;4995669;28;20053;-59
2022/06/19 04:06:10;;;;;;;14.05;2.92;;;;;;;;;;4981487;28;20053;-58
2022/06/19 04:08:37;;;;;;;21.88;2.80;;;;;;;;;;4995720;28;20076;-59
2022/06/19 04:11:03;;;;;;;17.88;3.08;;;;;;;;;;4976317;28;20081;-60
2022/06/19 04:13:29;;;;;;;11.02;1.88;;;;;;;;;;4989151;28;20050;-58
2022/06/19 04:15:55;;;;;;;12.63;2.20;;;;;;;;;;4995770;28;20042;-59
2022/06/19 04:18:21;;;;;;;22.52;4.05;;;;;;;;;;5003667;28;20045;-58
2022/06/19 04:20:48;;;;;;;18.05;3.78;;;;;;;;;;5012132;28;20050;-59
2022/06/19 04:23:14;;;;;;;19.20;2.90;;;;;;;;;;5010823;28;20046;-63
2022/06/19 04:25:43;;;;;;;20.80;3.50;;;;;;;;;;5013231;28;20124;-58
2022/06/19 04:28:10;;;;;;;21.02;2.90;;;;;;;;;;4994940;28;20050;-59
2022/06/19 04:30:36;;;;;;;23.63;3.50;;;;;;;;;;5010792;28;20499;-59
2022/06/19 04:33:02;;;;;;;18.13;3.30;;;;;;;;;;4993642;28;20092;-60
2022/06/19 04:35:29;;;;;;;17.98;3.85;;;;;;;;;;4994879;28;20402;-59
2022/06/19 04:37:55;;;;;;;18.92;3.58;;;;;;;;;;4984204;28;20483;-59
2022/06/19 04:40:21;;;;;;;16.52;3.40;;;;;;;;;;5007838;28;20499;-59
2022/06/19 04:42:47;;;;;;;13.93;2.83;;;;;;;;;;5000586;28;20123;-59
2022/06/19 04:45:13;;;;;;;18.27;3.80;;;;;;;;;;4995765;28;20060;-59
2022/06/19 04:47:39;;;;;;;15.45;2.85;;;;;;;;;;5012278;28;20057;-59
2022/06/19 04:50:06;;;;;;;17.08;2.63;;;;;;;;;;5012180;28;20063;-59
2022/06/19 04:52:32;;;;;;;11.35;2.85;;;;;;;;;;5001780;28;20401;-59
2022/06/19 04:54:58;;;;;;;14.70;2.35;;;;;;;;;;5011460;28;20103;-59
2022/06/19 04:57:24;;;;;;;16.83;2.47;;;;;;;;;;4993815;28;20050;-59
2022/06/19 04:59:50;;;;;;;18.55;3.22;;;;;;;;;;5011974;28;20049;-59
2022/06/19 05:02:16;;;;;;;12.93;2.70;;;;;;;;;;5003532;28;20458;-59
2022/06/19 05:04:42;;;;;;;14.85;3.53;;;;;;;;;;5011645;28;20409;-58
2022/06/19 05:07:08;;;;;;;14.05;2.25;;;;;;;;;;5011408;28;20053;-59
2022/06/19 05:09:34;;;;;;;16.00;3.05;;;;;;;;;;5001181;28;20050;-60
2022/06/19 05:12:00;;;;;;;11.35;2.25;;;;;;;;;;5005119;28;20053;-59
2022/06/19 05:14:26;;;;;;;13.82;2.15;;;;;;;;;;4994577;28;20379;-60
2022/06/19 05:16:52;;;;;;;17.83;2.00;;;;;;;;;;4995536;28;20061;-59
2022/06/19 05:19:18;;;;;;;15.35;2.05;;;;;;;;;;5005135;28;20057;-60
2022/06/19 05:21:45;;;;;;;13.93;2.05;;;;;;;;;;4995336;28;20050;-59
2022/06/19 05:24:11;;;;;;;19.13;3.38;;;;;;;;;;4975714;28;20057;-60
2022/06/19 05:26:37;;;;;;;16.73;2.63;;;;;;;;;;5004694;28;20041;-60
2022/06/19 05:29:03;;;;;;;15.82;2.90;;;;;;;;;;5005632;28;20056;-60
2022/06/19 05:31:34;;;;;;;18.55;3.80;;;;;;;;;;5014240;28;20049;-60
2022/06/19 05:34:00;;;;;;;14.80;2.53;;;;;;;;;;5016201;28;20045;-60
2022/06/19 05:36:28;;;;;;;17.63;2.40;;;;;;;;;;4996997;28;20054;-60
2022/06/19 05:38:54;;;;;;;12.88;2.42;;;;;;;;;;5005033;28;20123;-59
2022/06/19 05:41:20;;;;;;;22.05;2.80;;;;;;;;;;5019493;28;20061;-61
2022/06/19 05:43:49;;;;;;;20.25;2.50;;;;;;;;;;5008661;28;20050;-60
2022/06/19 05:46:16;;;;;;;16.10;3.00;;;;;;;;;;5015612;28;20117;-60
2022/06/19 05:48:42;;;;;;;17.35;2.45;;;;;;;;;;5014761;28;20406;-59
2022/06/19 05:51:16;;;;;;;17.63;2.42;;;;;;;;;;5002759;28;20046;-60
2022/06/19 05:53:47;;;;;;;18.25;2.45;;;;;;;;;;4997708;28;20048;-60
2022/06/19 05:56:16;;;;;;;23.67;3.38;;;;;;;;;;5015847;28;20041;-60
2022/06/19 05:58:42;;;;;;;16.50;2.70;;;;;;;;;;4997196;28;20076;-60
2022/06/19 06:01:09;;;;;;;16.25;2.65;;;;;;;;;;5007632;28;20068;-60
2022/06/19 06:03:35;;;;;;;14.88;2.25;;;;;;;;;;4981664;28;20475;-60
2022/06/19 06:06:02;;;;;;;18.15;3.03;;;;;;;;;;5012749;28;20061;-60
2022/06/19 06:08:28;;;;;;;14.27;2.58;;;;;;;;;;4994925;28;20104;-60
2022/06/19 06:10:54;;;;;;;17.38;2.58;;;;;;;;;;4995978;28;20042;-60
2022/06/19 06:13:20;;;;;;;15.73;2.30;;;;;;;;;;4998459;28;20050;-60
2022/06/19 06:15:47;;;;;;;15.02;2.58;;;;;;;;;;5006398;28;20121;-60
2022/06/19 06:18:13;;;;;;;14.93;2.97;;;;;;;;;;4993266;28;20042;-62
2022/06/19 06:20:39;;;;;;;12.07;2.00;;;;;;;;;;5014872;28;20081;-60
2022/06/19 06:23:06;;;;;;;14.02;2.78;;;;;;;;;;5014331;28;20046;-60
2022/06/19 06:25:32;;;;;;;20.15;3.53;;;;;;;;;;4995107;28;20054;-60
2022/06/19 06:27:58;;;;;;;14.00;2.13;;;;;;;;;;5014202;28;20054;-60
2022/06/19 06:30:24;;;;;;;16.98;2.75;;;;;;;;;;5014254;28;20045;-60
2022/06/19 06:32:50;;;;;;;16.75;2.75;;;;;;;;;;4998228;28;20052;-60
2022/06/19 06:35:16;;;;;;;16.25;2.22;;;;;;;;;;5013201;28;20042;-60
2022/06/19 06:37:42;;;;;;;19.85;2.88;;;;;;;;;;4994604;28;20046;-59
2022/06/19 06:40:09;;;;;;;13.05;2.17;;;;;;;;;;5004790;28;20853;-60
2022/06/19 06:42:35;;;;;;;18.80;2.30;;;;;;;;;;4993644;28;20050;-60
2022/06/19 06:45:01;;;;;;;16.77;2.30;;;;;;;;;;4998978;28;20050;-60
2022/06/19 06:47:27;;;;;;;20.73;2.55;;;;;;;;;;4997803;28;20046;-60
2022/06/19 06:49:53;;;;;;;24.42;3.92;;;;;;;;;;5004906;28;20038;-61
2022/06/19 06:52:19;;;;;;;22.38;2.40;;;;;;;;;;5014206;28;20050;-61
2022/06/19 06:54:45;;;;;;;18.42;2.88;;;;;;;;;;4993901;28;20038;-62
2022/06/19 06:57:11;;;;;;;26.50;2.67;;;;;;;;;;4990549;28;20041;-62
2022/06/19 06:59:37;;;;;;;22.50;3.55;;;;;;;;;;4989103;28;20144;-61
2022/06/19 07:02:04;;;;;;;16.92;2.50;;;;;;;;;;5014287;28;20045;-61
2022/06/19 07:04:30;;;;;;;20.83;3.20;;;;;;;;;;5014482;28;20050;-62
2022/06/19 07:06:56;;;;;;;23.02;2.83;;;;;;;;;;5014063;28;20049;-62
2022/06/19 07:09:22;;;;;;;18.88;2.65;;;;;;;;;;4996502;28;20056;-62
2022/06/19 07:11:48;;;;;;;13.40;2.30;;;;;;;;;;5014326;28;20042;-63
2022/06/19 07:14:15;;;;;;;14.35;2.13;;;;;;;;;;5014290;28;20038;-63
2022/06/19 07:16:41;;;;;;;17.15;2.30;;;;;;;;;;5013441;28;20057;-63
2022/06/19 07:19:07;;;;;;;24.25;3.03;;;;;;;;;;5007820;28;20049;-63
2022/06/19 07:21:33;;;;;;;21.98;2.60;;;;;;;;;;5014386;28;20088;-63
2022/06/19 07:24:00;;;;;;;14.70;2.67;;;;;;;;;;5008298;28;20521;-63
2022/06/19 07:26:26;;;;;;;15.05;2.20;;;;;;;;;;5007454;28;20081;-63
2022/06/19 07:28:53;;;;;;;18.02;2.25;;;;;;;;;;5012113;28;20054;-63
2022/06/19 07:31:19;;;;;;;17.73;3.45;;;;;;;;;;4996938;28;20049;-63
2022/06/19 07:33:45;;;;;;;13.48;2.20;;;;;;;;;;5011497;28;20053;-63
2022/06/19 07:36:13;;;;;;;25.70;2.70;;;;;;;;;;5015344;28;20081;-63
2022/06/19 07:38:39;;;;;;;13.20;2.20;;;;;;;;;;5012428;28;20056;-63
2022/06/19 07:41:05;;;;;;;15.15;2.55;;;;;;;;;;5017597;28;20111;-63
2022/06/19 07:43:31;;;;;;;18.40;2.33;;;;;;;;;;5032695;28;20425;-63
2022/06/19 07:45:57;;;;;;;18.75;2.40;;;;;;;;;;5033948;28;20060;-63
2022/06/19 07:51:08;;;;;;;19.90;3.45;;;;;;;;;;5033610;28;20414;-63
2022/06/19 07:53:34;;;;;;;13.00;2.42;;;;;;;;;;5034525;28;20047;-63
2022/06/19 07:56:00;;;;;;;12.27;2.97;;;;;;;;;;5023366;28;20056;-63
2022/06/19 07:58:26;;;;;;;19.85;2.65;;;;;;;;;;5030967;28;20143;-63
2022/06/19 08:00:52;;;;;;;12.80;2.00;;;;;;;;;;5034032;28;20053;-63
2022/06/19 08:03:18;;;;;;;20.67;3.08;;;;;;;;;;5033308;28;20179;-63
2022/06/19 08:05:46;;;;;;;14.82;3.33;;;;;;;;;;5025364;28;20049;-63
2022/06/19 08:08:19;;;;;;;21.38;2.63;;;;;;;;;;5032677;28;20079;-62
2022/06/19 08:10:47;;;;;;;13.63;1.88;;;;;;;;;;5015159;28;20048;-62
2022/06/19 08:13:14;;;;;;;16.60;2.17;;;;;;;;;;5033016;28;20124;-63
2022/06/19 08:15:40;;;;;;;13.52;2.97;;;;;;;;;;5014967;28;20581;-63
2022/06/19 08:18:06;;;;;;;13.23;2.05;;;;;;;;;;5017695;28;20042;-63
2022/06/19 08:20:32;;;;;;;13.80;1.80;;;;;;;;;;5032872;28;20128;-64
2022/06/19 08:22:58;;;;;;;12.88;2.17;;;;;;;;;;5018407;28;20053;-63
2022/06/19 08:25:25;;;;;;;9.88;1.70;;;;;;;;;;5032819;28;20095;-63
2022/06/19 08:27:52;;;;;;;10.25;2.00;;;;;;;;;;5031931;28;20482;-62
2022/06/19 08:30:21;;;;;;;14.02;2.00;;;;;;;;;;5028147;28;20068;-62
2022/06/19 08:32:47;;;;;;;20.73;2.03;;;;;;;;;;5027636;28;20106;-63
2022/06/19 08:35:14;;;;;;;12.68;2.40;;;;;;;;;;5001928;28;20038;-63
2022/06/19 08:37:41;;;;;;;8.13;2.08;;;;;;;;;;5031206;28;20045;-62
2022/06/19 08:40:21;;;;;;;11.52;2.67;;;;;;;;;;5028862;28;20049;-62
2022/06/19 08:43:07;;;;;;;13.38;2.70;;;;;;;;;;5009903;28;20064;-63
2022/06/19 08:45:38;;;;;;;13.93;2.35;;;;;;;;;;4993405;28;20052;-62
2022/06/19 08:48:10;;;;;;;12.52;2.95;;;;;;;;;;5003840;28;20410;-62
2022/06/19 08:50:59;;;;;;;11.02;1.95;;;;;;;;;;5009004;28;20053;-62
2022/06/19 08:53:28;;;;;;;13.13;1.90;;;;;;;;;;5011514;28;20518;-63
2022/06/19 08:56:01;;;;;;;9.30;2.10;;;;;;;;;;4999282;28;20045;-63
2022/06/19 08:58:44;;;;;;;12.75;1.83;;;;;;;;;;5010523;28;20045;-63
2022/06/19 09:01:15;;;;;;;10.65;1.45;;;;;;;;;;4992844;28;20383;-63
2022/06/19 09:06:51;;;;;;;11.10;1.42;;;;;;;;;;4975951;28;20086;-62
2022/06/19 09:09:36;;;;;;;11.70;1.65;;;;;;;;;;4991641;28;20116;-63
2022/06/19 09:12:07;;;;;;;15.43;1.88;;;;;;;;;;4994366;28;20135;-63
2022/06/19 09:14:35;;;;;;;8.35;1.38;;;;;;;;;;5011864;28;20041;-62
2022/06/19 09:17:11;;;;;;;8.48;1.80;;;;;;;;;;5011619;28;20061;-62
2022/06/19 09:19:57;;;;;;;11.38;1.63;;;;;;;;;;4978614;28;20050;-62
2022/06/19 09:22:37;;;;;;;8.20;1.95;;;;;;;;;;5010419;28;20522;-63
2022/06/19 09:25:03;;;;;;;9.00;1.58;;;;;;;;;;5003807;28;20398;-62
2022/06/19 09:27:31;;;;;;;8.90;1.63;;;;;;;;;;5000252;28;20046;-62
2022/06/19 09:30:20;;;;;;;7.18;1.27;;;;;;;;;;5000445;28;20054;-63
2022/06/19 09:32:56;;;;;;;9.73;1.65;;;;;;;;;;4994818;28;20177;-62
2022/06/19 09:35:29;;;;;;;11.32;1.48;;;;;;;;;;4992403;28;20049;-62
2022/06/19 09:37:58;;;;;;;8.90;1.65;;;;;;;;;;5003458;28;20379;-62
2022/06/19 09:40:26;;;;;;;5.63;1.27;;;;;;;;;;5009934;28;20398;-62
2022/06/19 09:42:59;;;;;;;8.20;1.67;;;;;;;;;;5011604;28;20478;-62
2022/06/19 09:45:27;;;;;;;9.57;1.95;;;;;;;;;;4991420;28;20046;-62
2022/06/19 09:48:16;;;;;;;13.70;2.03;;;;;;;;;;5015403;28;20054;-62
2022/06/19 09:50:55;;;;;;;7.68;1.10;;;;;;;;;;4983027;28;20060;-62
2022/06/19 09:53:41;;;;;;;11.55;1.48;;;;;;;;;;4993369;28;20391;-62
2022/06/19 09:56:12;;;;;;;9.45;1.90;;;;;;;;;;5010303;28;20049;-62
2022/06/19 09:59:02;;;;;;;7.80;1.95;;;;;;;;;;5006540;28;20526;-62
2022/06/19 10:01:30;;;;;;;8.30;1.48;;;;;;;;;;5000351;28;20414;-62
2022/06/19 10:04:04;;;;;;;6.53;1.20;;;;;;;;;;5011401;28;20057;-62
2022/06/19 10:06:36;;;;;;;7.88;1.35;;;;;;;;;;4994363;28;20379;-62
2022/06/19 10:09:05;;;;;;;6.20;1.55;;;;;;;;;;5004979;28;20136;-62
2022/06/19 10:11:33;;;;;;;11.30;2.85;;;;;;;;;;4979108;28;20050;-62
2022/06/19 10:13:59;;;;;;;6.35;1.13;;;;;;;;;;5010101;28;20056;-62
2022/06/19 10:16:37;;;;;;;9.90;1.58;;;;;;;;;;4990723;28;20050;-62
2022/06/19 10:19:14;;;;;;;5.28;1.17;;;;;;;;;;5013955;28;20053;-62
2022/06/19 10:22:14;;;;;;;8.75;1.60;;;;;;;;;;5035258;28;20041;-63
2022/06/19 10:24:56;;;;;;;4.18;1.02;;;;;;;;;;5011149;28;20042;-63
2022/06/19 10:27:34;;;;;;;5.60;1.00;;;;;;;;;;5015122;28;20042;-62
2022/06/19 10:30:00;;;;;;;5.80;1.23;;;;;;;;;;5010342;28;20046;-62
2022/06/19 10:32:32;;;;;;;4.43;1.00;;;;;;;;;;5011706;28;20149;-61
2022/06/19 10:35:12;;;;;;;7.13;1.48;;;;;;;;;;5003500;28;20144;-62
2022/06/19 10:37:38;;;;;;;9.25;1.58;;;;;;;;;;4999248;28;20366;-62
2022/06/19 10:40:21;;;;;;;5.53;0.95;;;;;;;;;;5013041;28;20685;-62
2022/06/19 10:43:03;;;;;;;4.85;1.20;;;;;;;;;;4992646;28;20080;-62
2022/06/19 10:45:38;;;;;;;4.25;0.90;;;;;;;;;;5014206;28;20053;-62
2022/06/19 10:48:04;;;;;;;7.57;1.60;;;;;;;;;;5015029;28;20512;-61
2022/06/19 10:50:30;;;;;;;6.18;1.45;;;;;;;;;;5011681;28;20041;-62
2022/06/19 10:53:26;;;;;;;3.92;1.20;;;17.40;99.90;;;;;;5013496;28;20446;-62
2022/06/19 10:56:09;;;;;;;4.78;1.02;;;17.50;99.90;;;;;;5013774;28;20045;-64
2022/06/19 10:58:36;;;;;;;7.15;0.90;;;;;;;;;;5013285;28;20593;-63
2022/06/19 11:01:04;;;;;;;6.28;1.17;;;;;;;;;;5012049;28;20050;-64
2022/06/19 11:06:35;;;;;;;4.82;0.88;;;;;;;;;;5006886;28;20045;-62
2022/06/19 11:09:07;;;;;;;2.55;0.70;;;17.30;99.90;;;;;;5010160;28;20088;-62
2022/06/19 11:11:35;;;;;;;4.13;0.98;;;;;;;;;;4993805;28;20100;-61
2022/06/19 11:14:01;;;;;;;4.43;0.93;;;;;;;;;;5010063;28;20050;-63
2022/06/19 11:16:27;;;;;;;3.65;0.80;;;;;;;;;;5003321;28;20372;-61
2022/06/19 11:18:54;;;;;;;2.95;0.75;;;;;;;;;;4996574;28;20061;-62
2022/06/19 11:21:23;;;;;;;5.82;1.13;;;;;;;;;;5010433;28;20065;-63
2022/06/19 11:23:49;;;;;;;5.30;0.80;;;16.50;99.90;;;;;;4998927;28;20149;-62
2022/06/19 11:26:17;;;;;;;1.98;0.60;;;;;;;;;;5013155;28;20128;-62
2022/06/19 11:28:47;;;;;;;3.08;0.95;;;;;;;;;;5013004;28;20060;-62
2022/06/19 11:31:14;;;;;;;5.43;0.95;;;;;;;;;;5013357;28;20065;-62
2022/06/19 11:33:41;;;;;;;4.03;0.95;;;;;;;;;;5013052;28;20046;-62
2022/06/19 11:36:08;;;;;;;3.53;0.65;;;;;;;;;;5012067;28;20053;-62
2022/06/19 11:38:42;;;;;;;4.65;1.17;;;;;;;;;;4996459;28;20129;-63
2022/06/19 11:41:21;;;;;;;5.57;1.48;;;;;;;;;;5014641;28;20494;-62
2022/06/19 11:43:59;;;;;;;3.15;0.90;;;;;;;;;;5028668;28;20053;-62
2022/06/19 11:46:26;;;;;;;5.30;1.02;;;;;;;;;;5012298;28;20037;-62
2022/06/19 11:48:52;;;;;;;5.60;0.80;;;;;;;;;;5013672;28;20050;-62
2022/06/19 11:51:21;;;;;;;5.63;1.00;;;;;;;;;;5012843;28;20465;-62
2022/06/19 11:53:53;;;;;;;7.85;1.00;;;;;;;;;;5013292;28;20461;-62
2022/06/19 11:56:25;;;;;;;6.22;1.17;;;;;;;;;;5013572;28;20050;-62
2022/06/19 11:59:14;;;;;;;5.60;1.20;;;;;;;;;;5013373;28;20076;-62
2022/06/19 12:01:42;;;;;;;3.53;1.00;;;;;;;;;;5005615;28;20065;-62
2022/06/19 12:04:29;;;;;;;4.38;1.23;;;;;;;;;;4991931;28;20065;-62
2022/06/19 12:06:59;;;;;;;6.97;1.83;;;;;;;;;;4993717;28;20082;-62
2022/06/19 12:09:36;;;;;;;;;;;17.40;99.90;;;;;;4998980;28;20505;-63
2022/06/19 12:12:22;;;;;;;5.07;1.27;;;;;;;;;;4993475;28;19926;-62
2022/06/19 12:14:51;;;;;;;6.57;0.82;;;;;;;;;;4993403;28;20534;-62
2022/06/19 12:17:23;;;;;;;3.78;1.23;;;;;;;;;;4993568;28;20065;-62
2022/06/19 12:19:55;;;;;;;4.30;0.80;;;;;;;;;;4981065;28;20140;-62
2022/06/19 12:22:46;;;;;;;7.22;1.30;;;17.80;99.90;;;;;;5014917;28;20401;-63
2022/06/19 12:25:16;;;;;;;5.70;1.52;;;;;;;;;;4999789;28;20145;-63
2022/06/19 12:27:48;;;;;;;5.38;1.00;;;18.40;99.90;;;;;;5012138;28;20049;-62
2022/06/19 12:30:26;;;;;;;5.15;1.20;;;;;;;;;;5028179;28;20065;-63
2022/06/19 12:32:54;;;;;;;5.15;1.10;;;;;;;;;;5012854;28;20311;-62
2022/06/19 12:35:25;;;;;;;6.30;1.10;;;;;;;;;;5012918;28;20042;-62
2022/06/19 12:37:51;;;;;;;8.10;1.02;;;;;;;;;;5029610;28;20516;-63
2022/06/19 12:40:18;;;;;;;3.95;1.02;;;;;;;;;;5011103;28;20125;-63
2022/06/19 12:42:46;;;;;;;11.05;2.70;;;;;;;;;;5012777;28;20466;-63
2022/06/19 12:45:15;;;;;;;7.90;1.30;;;;;;;;;;4994679;28;20080;-63
2022/06/19 12:48:06;;;;;;;6.72;1.77;;;18.70;99.90;;;;;;5012866;28;20577;-63
2022/06/19 12:50:43;;;;;;;4.28;1.00;;;;;;;;;;5012861;28;20048;-62
2022/06/19 12:53:15;;;;;;;7.45;1.15;;;;;;;;;;5009739;28;20057;-63
2022/06/19 12:55:54;;;;;;;5.65;1.35;;;;;;;;;;5010041;28;20045;-62
2022/06/19 12:58:41;;;;;;;6.20;1.15;;;;;;;;;;5011769;28;20093;-62
2022/06/19 13:01:13;;;;;;;6.38;1.40;;;;;;;;;;5012007;28;20042;-62
2022/06/19 13:03:39;;;;;;;8.27;1.48;;;;;;;;;;4995048;28;20046;-62
2022/06/19 13:06:26;;;;;;;9.43;1.55;;;18.40;99.90;;;;;;5012103;28;20042;-63
2022/06/19 13:09:04;;;;;;;5.40;1.17;;;;;;;;;;4994941;28;20480;-62
2022/06/19 13:11:42;;;;;;;4.75;1.30;;;;;;;;;;4977986;28;20125;-62
2022/06/19 13:14:28;;;;;;;10.68;1.98;;;17.70;99.90;;;;;;5012374;28;20088;-62
2022/06/19 13:17:00;;;;;;;7.70;1.80;;;;;;;;;;5012417;28;20498;-62
2022/06/19 13:19:32;;;;;;;6.95;1.35;;;;;;;;;;4995189;28;20057;-62
2022/06/19 13:22:18;;;;;;;8.30;1.90;;;;;;;;;;5011326;28;20421;-62
2022/06/19 13:24:50;;;;;;;8.07;1.65;;;;;;;;;;5026948;28;20053;-62
2022/06/19 13:27:41;;;;;;;10.02;1.58;;;17.50;99.90;;;;;;5013338;28;20046;-62
2022/06/19 13:30:13;;;;;;;8.70;1.83;;;;;;;;;;4932324;29;20428;-62
2022/06/19 13:33:03;;;;;;;4.25;1.35;;;18.10;99.90;;;;;;4932468;29;20099;-62
2022/06/19 13:35:45;;;;;;;8.20;1.55;;;;;;;;;;4931754;29;20056;-63
2022/06/19 13:38:13;;;;;;;6.45;1.13;;;;;;;;;;4916846;29;20051;-63
2022/06/19 13:40:42;;;;;;;6.13;1.45;;;;;;;;;;4932474;29;20063;-63
2022/06/19 13:43:14;;;;;;;6.35;1.30;;;;;;;;;;4932902;29;20054;-62
2022/06/19 13:46:10;;;;;;;6.43;1.80;;;18.80;99.90;;;;;;4950499;29;20051;-62
2022/06/19 13:48:58;;;;;;;10.35;1.77;;;;;;;;;;4919847;29;20118;-62
2022/06/19 13:51:35;;;;;;;9.50;1.60;;;;;;;;;;4954253;28;20055;-62
2022/06/19 13:54:15;;;;;;;7.72;1.38;;;;;;;;;;4954897;29;20074;-63
2022/06/19 13:56:46;;;;;;;7.38;1.35;;;;;;;;;;4939286;29;20074;-62
2022/06/19 13:59:30;;;;;;;7.80;1.73;;;;;;;;;;4936900;29;20082;-63
2022/06/19 14:02:16;;;;;;;9.43;1.65;;;18.90;99.90;;;;;;4954956;29;20138;-63
2022/06/19 14:04:59;;;;;;;11.40;1.90;;;19.50;99.90;;;;;;4938436;29;20131;-63
2022/06/19 14:07:31;;;;;;;5.00;1.27;;;;;;;;;;4993300;28;20414;-63
2022/06/19 14:10:25;;;;;;;7.78;1.45;;;18.80;99.90;;;;;;4998270;28;20054;-63
2022/06/19 14:12:58;;;;;;;6.80;1.77;;;18.80;99.90;;;;;;5024136;28;20045;-63
2022/06/19 14:15:27;;;;;;;7.43;1.70;;;;;;;;;;5017564;28;20135;-63
2022/06/19 14:18:07;;;;;;;7.63;1.27;;;19.30;99.90;;;;;;5017736;28;20042;-63
2022/06/19 14:20:45;;;;;;;8.35;1.88;;;19.20;99.90;;;;;;5034442;28;20075;-62
2022/06/19 14:23:22;;;;;;;4.60;1.85;;;;;;;;;;5017447;28;20089;-63
2022/06/19 14:25:57;;;;;;;6.63;1.55;;;;;;;;;;5035146;28;20045;-63
2022/06/19 14:28:27;;;;;;;5.78;1.48;;;;;;;;;;5033412;28;20049;-63
2022/06/19 14:30:55;;;;;;;7.75;2.22;;;;;;;;;;5000867;28;20049;-63
2022/06/19 14:33:40;;;;;;;8.98;2.28;;;;;;;;;;5017156;28;20045;-64
2022/06/19 14:36:27;;;;;;;19.33;2.25;;;;;;;;;;5015064;28;20057;-63
2022/06/19 14:39:02;;;;;;;7.40;1.52;;;19.00;99.90;;;;;;5018773;28;20045;-63
2022/06/19 14:41:32;;;;;;;6.40;1.52;;;18.80;99.90;;;;;;5016936;28;20054;-63
2022/06/19 14:44:03;;;;;;;7.38;1.75;;;;;;;;;;5016072;28;20053;-63
2022/06/19 14:46:48;;;;;;;7.28;1.65;;;19.70;99.90;;;;;;5007461;28;20037;-63
2022/06/19 14:49:41;;;;;;;7.07;1.50;;;20.40;99.90;;;;;;5034537;28;20450;-63
2022/06/19 14:52:14;;;;;;;8.00;1.67;;;;;;;;;;5017054;28;20149;-64
2022/06/19 14:54:49;;;;;;;5.57;1.75;;;19.60;99.90;;;;;;5034080;28;20038;-64
2022/06/19 14:57:15;;;;;;;6.57;1.70;;;;;;;;;;5034485;28;20045;-64